Terminal Aerodrome Forecast
Issued by NWS

Home | Current Version | Previous Version | Text Only | Print | Product List | Glossary On
Versions: 1 2 3 4 5 6 7 8 9 10 11 12
000
FTUS42 TJSJ 291725
TAFJMZ
TAF
TJMZ 291725Z 2918/3018 28010KT P6SM VCTS FEW025CB BKN050
     FM292330 08005KT P6SM FEW030 SCT050 SCT120
     FM300300 00000KT P6SM SKC
     FM301450 29010KT P6SM FEW025 SCT040
      AMD NOT SKED 2923/3011=

USA.gov is the U.S. government's official web portal to all federal, state and local government web resources and services.